Castleton, Vermont
Current Conditions -  °F | °C
As of 2:15 PM on Friday 21 Nov 2014 (Local Time) from KRUT Reporting Station
Clear Clear  
Wind Chill: -8°   Ceiling: Unl
Heat Index: -3°   Visibility: 10mi
Dew Point: -12°   Wind: 8mph
Humidity: 51%   Direction: 290°WNW
Pressure: 30.19"   Gusts: NA
Location:  43.61°N, 73.18°W
Report Text: KRUT 211915Z 29007KT 10SM CLR M03/M12 A3019 RMK AO1
Loading
Personal Weather Stations






























Interactive Weather Map New forecast layout! Learn more

10-Day Weather Forecast

Advertisements
Track Severe Weather on mobile